ロサンゼルス の空港の天気 - METARとTAF

ロサンゼルス国際空港 ( KLAX / LAX ) - アメリカ カリフォルニア州ロサンゼルス
飛行場実況気象(Metar)
観測時間04/24 10:53 PDT (04/24 17:53 UTC)
風向・風速西南西 5m/s
視程6450m
天気現象煙霧
少しの雲 雲底高度 270m
全天の4割程度の雲 雲底高度 430m
全天の8割程度の雲 雲底高度 4270m
気温16.7℃
湿度70%
気圧1017.5hPa
METARKLAX 241753Z 24010KT 4SM HZ FEW009 SCT014 BKN140 17/11 A3005 RMK AO2 SLP175 T01670111 10178 20122 53008
過去の天気等 Google飛行場航空写真 Wunderground天気予報

過去48時間のMETAR

飛行場予報(TAF)
発表時間: 4/24 10:40 PDT (4/24 17:40 UTC)
予報対象時間: 24日11時 PDT ~ 25日17時 PDT
風向・風速不定 2m/s
視程8,050m
天気現象煙霧
少しの雲 雲底高度 180m
全天の4割程度の雲 雲底高度 370m
24日12時 PDT から
風向・風速西 6m/s
視程10km以上
少しの雲 雲底高度 460m
全天の4割程度の雲 雲底高度 7,620m
24日19時 PDT から
風向・風速西 3m/s
視程10km以上
天気現象もや
全天の8割程度の雲 雲底高度 240m
25日1時 PDT から
風向・風速不定 2m/s
視程3,220m
天気現象もや
全天の8割程度の雲 雲底高度 180m
25日9時 PDT から
風向・風速不定 2m/s
視程6,440m
天気現象もや
全天を覆う雲 雲底高度 270m
25日11時 PDT から
風向・風速西 3m/s
視程10km以上
天気現象煙霧
全天の4割程度の雲 雲底高度 300m
25日13時 PDT から
風向・風速西 5m/s
視程10km以上
少しの雲 雲底高度 460m
KLAX 241740Z 2418/2524 VRB03KT 5SM HZ FEW006 SCT012
FM241900 26011KT P6SM FEW015 SCT250
FM250200 26006KT 6SM BR BKN008
FM250800 VRB03KT 2SM BR BKN006
FM251600 VRB03KT 4SM BR OVC009
FM251800 26005KT 6SM HZ SCT010
FM252000 26010KT P6SM FEW015